Flight Track Log - Related Links

Times and Time Zones

All times are in EDT time to prevent confusion due to time zone crossing. See the N199CG flight status page for this flight to view local times or setup timezone preferences in your user account.

Time Position Orientation Groundspeed Altitude Reporting Facility
EDT Latitude Longitude Course Direction KTS MPH feet Rate Location/Type
Mon 06:08:00 PM 40.3672 -79.9463 180° South  Level Estimated
Mon 06:09:00 PM 40.2991 -79.9397 176° South  Level FlightAware Approximate
Mon 06:10:00 PM 40.2309 -79.9390 180° South  Level Estimated
Mon 06:10:56 PM 40.3764 -80.0000 180° South 197 227 10,900  Level Cleveland Center
Mon 06:11:00 PM 40.1627 -79.9360 178° South  Level FlightAware Approximate
Mon 06:11:56 PM 40.3117 -79.9978 179° South 209 241 11,000  Level Cleveland Center
Mon 06:12:00 PM 40.0944 -79.9354 180° South  Level Estimated
Mon 06:12:56 PM 40.2533 -79.9983 180° South 217 250 12,600  Level Cleveland Center
Mon 06:13:00 PM 40.0262 -79.9336 179° South  Level FlightAware Approximate
Mon 06:13:56 PM 40.1992 -79.9958 178° South 212 244 13,600  Level Cleveland Center
Mon 06:14:00 PM 39.9580 -79.9329 180° South  Level Estimated
Mon 06:14:56 PM 40.1386 -79.9939 179° South 207 238 14,800  Level Cleveland Center
Mon 06:15:00 PM 39.8897 -79.9332 180° South  Level FlightAware Approximate
Mon 06:15:56 PM 40.0822 -79.9917 178° South 207 238 15,800  Level Cleveland Center
Mon 06:16:00 PM 39.8215 -79.9325 180° South  Level Estimated
Mon 06:16:56 PM 40.0281 -79.9919 180° South 202 232 16,900  Level Cleveland Center
Mon 06:17:56 PM 39.9761 -79.9897 178° South 196 226 17,800 800 Climbing Cleveland Center
Mon 06:18:56 PM 39.9239 -79.9875 178° South 196 226 18,500 750 Climbing Cleveland Center
Mon 06:19:56 PM 39.8697 -79.9853 178° South 196 226 19,300 700 Climbing Cleveland Center
Mon 06:20:56 PM 39.8175 -79.9858 180° South 196 226 19,900 300 Climbing Cleveland Center
Mon 06:21:56 PM 39.7572 -79.9836 178° South 201 231 19,900  Level Cleveland Center
Mon 06:22:56 PM 39.6944 -79.9842 180° South 221 254 19,900  Level Cleveland Center
Mon 06:24:45 PM 39.5775 -79.9831 180° South 225 259 19,900  Level Washington Center
Mon 06:25:46 PM 39.5089 -79.9761 176° South 237 273 19,900  Level Washington Center
Mon 06:26:46 PM 39.4419 -79.9803 183° South 242 278 19,900  Level Washington Center
Mon 06:27:46 PM 39.3753 -79.9789 179° South 247 284 19,900  Level Washington Center
Mon 06:28:44 PM 39.3067 -79.9772 179° South 247 284 19,900  Level Washington Center
Mon 06:29:45 PM 39.2400 -79.9761 179° South 247 284 19,900  Level Washington Center
Mon 06:30:46 PM 39.1733 -79.9719 177° South 247 284 19,900  Level Washington Center
Mon 06:31:44 PM 39.1067 -79.9706 179° South 247 284 19,900  Level Washington Center
Mon 06:32:45 PM 39.0400 -79.9694 179° South 247 284 19,900  Level Washington Center
Mon 06:33:46 PM 38.9772 -79.9761 185° South 256 295 19,900  Level Washington Center
Mon 06:34:46 PM 38.9086 -79.9747 179° South 256 295 19,900  Level Washington Center
Mon 06:35:44 PM 38.8336 -79.9703 177° South 251 289 19,900  Level Washington Center
Mon 06:36:45 PM 38.7669 -79.9689 179° South 251 289 19,900  Level Washington Center
Mon 06:37:46 PM 38.6983 -79.9675 179° South 251 289 19,900  Level Washington Center
Mon 06:38:44 PM 38.6358 -79.9667 179° South 251 289 19,900  Level Washington Center
Mon 06:39:44 PM 38.5689 -79.9678 181° South 251 289 19,900 -99 Level Washington Center
Mon 06:40:45 PM 38.4992 -79.9903 194° South 251 289 19,700 -885 Descending Washington Center
Mon 06:41:46 PM 38.4275 -80.0125 194° South 263 303 18,100 -1,587 Descending Washington Center
Mon 06:42:46 PM 38.3397 -80.0206 184° South 281 323 16,500 -1,059 Descending Washington Center
Mon 06:43:45 PM 38.2606 -80.0211 180° South 292 336 16,000 -250 Descending Washington Center
Mon 06:44:46 PM 38.1856 -80.0142 176° South 287 330 16,000  Level Washington Center
Mon 06:45:44 PM 38.1189 -80.0103 177° South 277 319 16,000  Level Washington Center
Mon 06:46:45 PM 38.0461 -80.0086 179° South 271 312 16,000  Level Washington Center
Mon 06:47:45 PM 37.9731 -80.0069 179° South 271 312 16,000  Level Washington Center
Mon 06:48:46 PM 37.8878 -79.9992 176° South 271 312 16,000  Level Washington Center
Mon 06:49:44 PM 37.8169 -79.9978 179° South 271 312 16,000  Level Washington Center
Mon 06:50:45 PM 37.7419 -79.9958 179° South 271 312 16,000 -49 Level Washington Center
Mon 06:51:46 PM 37.6711 -79.9917 177° South 271 312 15,900 -50 Descending Washington Center
Mon 06:52:44 PM 37.6089 -79.9881 177° South 266 306 15,900  Level Washington Center
Mon 06:53:45 PM 37.5400 -79.9842 177° South 260 299 15,900  Level Washington Center
Mon 06:54:46 PM 37.4714 -79.9828 179° South 254 292 15,900  Level Washington Center
Mon 06:55:44 PM 37.3964 -79.9786 177° South 254 292 15,900  Level Washington Center
Mon 06:56:44 PM 37.3275 -79.9772 179° South 254 292 15,900  Level Washington Center
Mon 06:57:46 PM 37.2589 -79.9733 177° South 254 292 15,900  Level Washington Center
Mon 06:58:46 PM 37.1986 -79.9672 175° South 254 292 15,900  Level Washington Center
Mon 06:59:44 PM 37.1319 -79.9658 179° South 254 292 15,900  Level Washington Center
Mon 07:00:45 PM 37.0653 -79.9622 178° South 254 292 15,900 -250 Level Washington Center
Mon 07:01:44 PM 36.9883 -79.9578 177° South 254 292 15,400 -942 Descending Washington Center
Mon 07:02:46 PM 36.9153 -79.9536 177° South 254 292 14,000 -738 Descending Washington Center
Mon 07:03:46 PM 36.8383 -79.9494 178° South 264 304 13,900 -50 Descending Washington Center
Mon 07:04:46 PM 36.7694 -79.9481 179° South 264 304 13,900  Level Washington Center
Mon 07:05:45 PM 36.7050 -79.9444 177° South 264 304 13,900  Level Washington Center
Mon 07:06:45 PM 36.6319 -79.9403 177° South 264 304 13,900  Level Washington Center
Mon 07:07:46 PM 36.5611 -79.9389 179° South 264 304 13,900  Level Washington Center
Mon 07:08:08 PM 36.5214 -79.9339 174° South 267 307 13,900  Level Atlanta Center
Mon 07:09:08 PM 36.4544 -79.9294 177° South 267 307 13,900  Level Atlanta Center
Mon 07:10:08 PM 36.3817 -79.9281 179° South 267 307 13,900 -500 Level Atlanta Center
Mon 07:11:08 PM 36.3064 -79.9242 178° South 262 302 12,900 -900 Descending Atlanta Center
Mon 07:12:08 PM 36.2417 -79.9197 177° South 267 307 12,100 -950 Descending Atlanta Center
Mon 07:13:08 PM 36.1683 -79.9158 178° South 267 307 11,000 -1,350 Descending Atlanta Center
Mon 07:14:08 PM 36.0953 -79.9144 179° South 273 314 9,400 -1,600 Descending Atlanta Center
Mon 07:15:08 PM 36.0242 -79.9103 177° South 273 314 7,800 -1,800 Descending Atlanta Center
Mon 07:16:08 PM 35.9533 -79.9089 179° South 254 292 5,800 -1,850 Descending Atlanta Center
Mon 07:17:08 PM 35.8864 -79.9072 179° South 249 287 4,100 -1,100 Descending Atlanta Center
Mon 07:18:08 PM 35.8406 -79.9017 174° South 239 275 3,600 -500 Descending Atlanta Center
Mon 07:22:00 PM 35.7231 -79.8879 171° South  Level FlightAware Approximate
Mon 07:29:00 PM 35.6500 -79.8833 180° South  Level FlightAware Approximate
Mon 07:30:00 PM 35.6545 -79.8948 180° South  Level Estimated
Mon 07:31:00 PM 35.6545 -79.8948 180° South  Level Estimated

Login

Don't have an account? Register now (free) for customized features, flight alerts, and more!